Time;durP1;ratioP1;P1;durP2;ratioP2;P2;SDS_P1;SDS_P2;PMS_P1;PMS_P2;Temp;Humidity;BMP_temperature;BMP_pressure;BME280_temperature;BME280_humidity;BME280_pressure;Samples;Min_cycle;Max_cycle;Signal;HPM_P1;HPM_P2
2022/04/28 00:02:14;;;;;;;6.38;2.30;;;20.80;33.20;;;;;;5138891;28;20015;-39
2022/04/28 00:04:41;;;;;;;5.30;2.25;;;20.80;33.20;;;;;;5137967;28;20054;-39
2022/04/28 00:07:07;;;;;;;6.97;2.28;;;20.80;33.20;;;;;;5137223;28;20118;-38
2022/04/28 00:09:33;;;;;;;8.43;2.20;;;20.70;33.20;;;;;;5138152;28;20035;-41
2022/04/28 00:11:58;;;;;;;4.68;1.98;;;20.70;33.30;;;;;;5119289;28;20034;-39
2022/04/28 00:14:24;;;;;;;5.82;2.00;;;20.70;33.20;;;;;;5119133;28;20011;-39
2022/04/28 00:16:50;;;;;;;4.88;1.80;;;20.70;33.20;;;;;;5137318;28;20458;-39
2022/04/28 00:19:16;;;;;;;4.82;2.03;;;20.70;33.20;;;;;;5137848;27;20031;-40
2022/04/28 00:21:42;;;;;;;6.05;2.00;;;20.70;33.30;;;;;;5122469;27;20054;-40
2022/04/28 00:24:08;;;;;;;4.97;2.13;;;20.70;33.30;;;;;;5121861;27;20065;-39
2022/04/28 00:26:34;;;;;;;6.07;2.15;;;20.70;33.30;;;;;;5141882;27;20031;-39
2022/04/28 00:28:59;;;;;;;6.50;2.03;;;20.70;33.20;;;;;;5123782;27;20022;-40
2022/04/28 00:31:25;;;;;;;5.20;2.20;;;20.70;33.30;;;;;;5141531;27;20060;-40
2022/04/28 00:33:51;;;;;;;5.63;2.35;;;20.60;33.20;;;;;;5089425;27;20015;-41
2022/04/28 00:36:17;;;;;;;4.57;2.03;;;20.60;33.30;;;;;;5142031;27;20014;-40
2022/04/28 00:38:43;;;;;;;6.07;2.00;;;20.60;33.30;;;;;;5142522;27;20027;-42
2022/04/28 00:41:08;;;;;;;5.97;2.08;;;20.60;33.30;;;;;;5141614;27;20034;-40
2022/04/28 00:43:51;;;;;;;7.68;1.95;;;20.60;33.30;;;;;;5140935;27;20022;-41
2022/04/28 00:46:17;;;;;;;4.18;2.00;;;20.60;33.40;;;;;;5140937;27;20469;-41
2022/04/28 00:51:30;;;;;;;4.60;2.10;;;20.60;33.30;;;;;;5141294;27;20026;-40
2022/04/28 00:53:55;;;;;;;3.83;1.80;;;20.60;33.40;;;;;;5141056;27;20023;-43
2022/04/28 00:56:21;;;;;;;5.68;1.88;;;20.60;33.40;;;;;;5141897;27;20057;-41
2022/04/28 00:58:48;;;;;;;4.63;1.90;;;20.60;33.40;;;;;;5123818;27;20481;-43
2022/04/28 01:01:14;;;;;;;5.50;2.03;;;20.60;33.40;;;;;;5122749;27;20469;-41
2022/04/28 01:03:40;;;;;;;6.57;2.17;;;20.60;33.40;;;;;;5142024;27;20036;-40
2022/04/28 01:06:07;;;;;;;5.13;2.08;;;20.60;33.50;;;;;;5123948;27;20015;-41
2022/04/28 01:08:32;;;;;;;5.05;2.38;;;20.50;33.40;;;;;;5124114;27;20026;-44
2022/04/28 01:10:58;;;;;;;4.35;1.90;;;20.50;33.40;;;;;;5123736;27;20011;-40
2022/04/28 01:13:24;;;;;;;6.13;2.33;;;20.50;33.40;;;;;;5107480;27;20014;-43
2022/04/28 01:15:50;;;;;;;5.05;1.98;;;20.50;33.50;;;;;;5124842;27;20079;-42
2022/04/28 01:18:16;;;;;;;4.47;1.92;;;20.50;33.40;;;;;;5124034;27;20067;-44
2022/04/28 01:20:43;;;;;;;5.30;2.10;;;20.50;33.50;;;;;;5142102;27;20520;-41
2022/04/28 01:23:08;;;;;;;6.90;2.25;;;20.50;33.50;;;;;;5123371;27;20026;-42
2022/04/28 01:25:34;;;;;;;6.35;2.47;;;20.50;33.50;;;;;;5141378;27;20023;-41
2022/04/28 01:28:00;;;;;;;4.82;1.95;;;20.50;33.50;;;;;;5141414;27;20011;-41
2022/04/28 01:30:26;;;;;;;5.25;1.98;;;20.50;33.40;;;;;;5141531;27;20091;-40
2022/04/28 01:32:52;;;;;;;4.82;2.10;;;20.50;33.40;;;;;;5141634;27;20030;-41
2022/04/28 01:35:18;;;;;;;5.25;2.05;;;20.50;33.40;;;;;;5141563;27;20107;-40
2022/04/28 01:37:44;;;;;;;5.43;2.13;;;20.50;33.50;;;;;;5141358;27;20035;-41
2022/04/28 01:40:13;;;;;;;5.07;2.25;;;20.40;33.40;;;;;;5123413;27;20027;-40
2022/04/28 01:42:43;;;;;;;4.38;1.98;;;20.40;33.50;;;;;;5141783;27;20099;-42
2022/04/28 01:45:09;;;;;;;4.88;2.15;;;20.40;33.50;;;;;;5141858;27;20019;-40
2022/04/28 01:47:35;;;;;;;4.50;2.05;;;20.40;33.50;;;;;;5123056;27;20035;-42
2022/04/28 01:50:02;;;;;;;5.20;1.80;;;20.40;33.50;;;;;;5107235;27;20011;-45
2022/04/28 01:55:11;;;;;;;6.80;2.22;;;20.40;33.50;;;;;;5143167;27;20042;-41
2022/04/28 01:57:39;;;;;;;6.57;2.40;;;20.40;33.50;;;;;;5122904;27;20012;-43
2022/04/28 02:00:06;;;;;;;7.88;2.60;;;20.40;33.50;;;;;;5140253;27;20051;-41
2022/04/28 02:02:32;;;;;;;5.10;2.47;;;20.40;33.50;;;;;;5140095;27;20012;-43
2022/04/28 02:05:01;;;;;;;6.03;2.30;;;20.40;33.50;;;;;;5121154;27;20019;-42
2022/04/28 02:07:27;;;;;;;6.00;2.30;;;20.40;33.70;;;;;;5139529;27;20028;-41
2022/04/28 02:09:53;;;;;;;4.65;1.90;;;20.30;33.70;;;;;;5121084;27;20015;-40
2022/04/28 02:12:19;;;;;;;4.75;1.95;;;20.30;33.70;;;;;;5120662;27;20098;-40
2022/04/28 02:14:46;;;;;;;6.32;2.30;;;20.30;33.60;;;;;;5120221;27;20027;-41
2022/04/28 02:17:15;;;;;;;7.70;2.67;;;20.30;33.70;;;;;;5138656;27;20098;-43
2022/04/28 02:19:41;;;;;;;3.80;1.90;;;20.30;33.60;;;;;;5119904;27;20023;-41
2022/04/28 02:22:07;;;;;;;4.38;2.05;;;20.30;33.50;;;;;;5140585;27;20031;-42
2022/04/28 02:24:33;;;;;;;7.22;2.30;;;20.30;33.60;;;;;;5158629;27;20019;-41
2022/04/28 02:27:01;;;;;;;6.35;1.88;;;20.30;33.60;;;;;;5158237;27;20042;-42
2022/04/28 02:29:26;;;;;;;4.57;2.00;;;20.30;33.70;;;;;;5158516;27;20462;-40
2022/04/28 02:31:53;;;;;;;5.82;2.30;;;20.30;33.70;;;;;;5158272;27;20035;-40
2022/04/28 02:34:19;;;;;;;4.97;2.20;;;20.20;33.60;;;;;;5158501;27;20083;-40
2022/04/28 02:36:45;;;;;;;4.93;1.92;;;20.20;33.70;;;;;;5140084;27;20014;-40
2022/04/28 02:39:10;;;;;;;5.18;1.90;;;20.20;33.70;;;;;;5140251;27;20481;-40
2022/04/28 02:41:36;;;;;;;5.18;2.30;;;20.20;33.80;;;;;;5139930;27;20011;-41
2022/04/28 02:44:03;;;;;;;6.07;2.10;;;20.20;33.70;;;;;;5159534;27;20050;-44
2022/04/28 02:46:29;;;;;;;6.38;2.22;;;20.20;33.70;;;;;;5159753;27;20030;-41
2022/04/28 02:48:55;;;;;;;6.07;2.30;;;20.20;33.70;;;;;;5159475;27;20010;-43
2022/04/28 02:51:21;;;;;;;6.00;2.10;;;20.20;33.70;;;;;;5159989;27;20011;-41
2022/04/28 02:53:47;;;;;;;3.70;2.05;;;20.20;33.80;;;;;;5159407;27;20023;-42
2022/04/28 02:56:13;;;;;;;5.80;2.25;;;20.20;33.80;;;;;;5141523;27;20106;-42
2022/04/28 02:58:39;;;;;;;5.47;2.30;;;20.10;33.80;;;;;;5161009;27;20015;-41
2022/04/28 03:01:06;;;;;;;3.88;2.03;;;20.20;33.80;;;;;;5159784;27;20026;-42
2022/04/28 03:03:31;;;;;;;5.97;2.35;;;20.20;33.90;;;;;;5140348;27;20007;-41
2022/04/28 03:11:27;;;;;;;6.40;2.03;;;20.10;33.80;;;;;;5146602;27;20043;-42
2022/04/28 03:13:54;;;;;;;5.50;2.35;;;20.10;33.90;;;;;;5162413;27;20015;-47
2022/04/28 03:16:20;;;;;;;3.75;1.88;;;20.10;33.90;;;;;;5162100;27;20011;-45
2022/04/28 03:18:46;;;;;;;4.90;2.30;;;20.10;34.00;;;;;;5161618;27;20015;-44
2022/04/28 03:21:13;;;;;;;4.68;2.20;;;20.10;33.90;;;;;;5160416;27;20086;-44
2022/04/28 03:23:38;;;;;;;4.00;2.17;;;20.10;33.90;;;;;;5142044;27;20045;-46
2022/04/28 03:26:05;;;;;;;4.47;1.85;;;20.00;33.80;;;;;;5123510;27;21179;-45
2022/04/28 03:28:38;;;;;;;6.05;2.00;;;20.10;33.80;;;;;;5160071;27;20144;-45
2022/04/28 03:31:04;;;;;;;4.03;2.00;;;20.00;33.70;;;;;;5160529;27;20033;-42
2022/04/28 03:33:30;;;;;;;6.22;2.00;;;20.10;33.90;;;;;;5159837;27;20064;-43
2022/04/28 03:35:55;;;;;;;5.82;2.28;;;20.00;33.90;;;;;;5141795;27;20023;-46
2022/04/28 03:38:21;;;;;;;6.40;2.45;;;20.00;33.80;;;;;;5106946;27;20023;-45
2022/04/28 03:40:47;;;;;;;4.32;2.15;;;20.00;33.80;;;;;;5142915;27;20019;-42
2022/04/28 03:43:13;;;;;;;5.55;2.15;;;20.00;33.90;;;;;;5140469;27;20022;-42
2022/04/28 03:45:39;;;;;;;6.07;2.10;;;20.00;33.90;;;;;;5142553;27;20019;-44
2022/04/28 03:48:08;;;;;;;5.45;2.15;;;20.00;33.90;;;;;;5161597;27;20007;-41
2022/04/28 03:50:34;;;;;;;4.85;2.10;;;20.00;33.80;;;;;;5162754;27;20010;-42
2022/04/28 03:52:59;;;;;;;6.28;2.10;;;20.00;34.00;;;;;;5144277;27;20007;-45
2022/04/28 03:55:32;;;;;;;3.83;2.00;;;20.00;33.90;;;;;;5147628;27;20109;-45
2022/04/28 03:57:59;;;;;;;5.38;2.15;;;20.00;34.00;;;;;;5165890;27;20501;-44
2022/04/28 04:00:25;;;;;;;5.32;1.90;;;19.90;33.90;;;;;;5166385;27;20060;-47
2022/04/28 04:02:51;;;;;;;4.72;1.90;;;19.90;34.00;;;;;;5164531;27;20015;-42
2022/04/28 04:05:17;;;;;;;6.50;2.15;;;19.90;33.90;;;;;;5163862;27;20508;-44
2022/04/28 04:07:43;;;;;;;6.35;2.30;;;19.90;34.00;;;;;;5164146;27;20015;-41
2022/04/28 04:10:13;;;;;;;5.45;2.08;;;19.90;34.10;;;;;;5146253;27;20019;-41
2022/04/28 04:12:39;;;;;;;6.60;2.08;;;19.90;34.00;;;;;;5145961;27;20056;-42
2022/04/28 04:15:06;;;;;;;4.45;2.00;;;19.90;34.10;;;;;;5144982;27;20434;-42
2022/04/28 04:17:41;;;;;;;5.35;2.50;;;19.90;34.10;;;;;;5164068;27;20030;-41
2022/04/28 04:20:07;;;;;;;5.43;2.10;;;19.90;34.10;;;;;;5146424;27;20104;-42
2022/04/28 04:22:33;;;;;;;6.55;2.20;;;19.90;34.10;;;;;;5163277;27;20027;-42
2022/04/28 04:24:59;;;;;;;6.30;2.22;;;19.90;34.10;;;;;;5164023;27;20015;-42
2022/04/28 04:27:25;;;;;;;4.07;1.83;;;19.90;34.10;;;;;;5163962;27;20532;-41
2022/04/28 04:29:51;;;;;;;4.68;2.20;;;19.90;34.00;;;;;;5166241;27;20063;-43
2022/04/28 04:32:17;;;;;;;6.00;2.05;;;19.90;34.20;;;;;;5146634;27;20054;-43
2022/04/28 04:34:43;;;;;;;6.93;1.90;;;19.80;34.00;;;;;;5147466;27;20008;-42
2022/04/28 04:37:10;;;;;;;6.60;2.00;;;19.90;34.10;;;;;;5165121;27;20027;-43
2022/04/28 04:39:35;;;;;;;4.78;1.90;;;19.90;34.10;;;;;;5145608;27;20111;-41
2022/04/28 04:42:01;;;;;;;4.93;2.30;;;19.90;34.10;;;;;;5146204;27;20018;-43
2022/04/28 04:44:27;;;;;;;5.13;2.10;;;19.80;34.00;;;;;;5163671;27;20026;-43
2022/04/28 04:46:52;;;;;;;7.05;2.67;;;19.90;34.00;;;;;;5163526;27;20083;-43
2022/04/28 04:49:19;;;;;;;5.28;2.28;;;19.90;34.00;;;;;;5127968;27;20015;-42
2022/04/28 04:51:45;;;;;;;6.03;1.98;;;19.90;33.90;;;;;;5163641;27;20426;-43
2022/04/28 04:54:12;;;;;;;4.25;2.05;;;19.90;33.90;;;;;;5163178;27;20022;-41
2022/04/28 04:56:40;;;;;;;5.05;2.03;;;20.00;33.80;;;;;;5162842;27;20019;-42
2022/04/28 04:59:07;;;;;;;3.95;1.92;;;20.20;33.70;;;;;;5127009;27;20022;-43
2022/04/28 05:01:33;;;;;;;4.95;2.25;;;20.20;33.50;;;;;;5163051;27;20021;-41
2022/04/28 05:03:59;;;;;;;5.50;2.13;;;20.30;33.30;;;;;;5143350;27;20043;-41
2022/04/28 05:06:24;;;;;;;6.82;2.47;;;20.20;33.30;;;;;;5141805;27;20031;-41
2022/04/28 05:08:50;;;;;;;5.93;2.08;;;20.20;33.20;;;;;;5160526;27;20011;-42
2022/04/28 05:11:17;;;;;;;6.80;2.38;;;20.10;33.90;;;;;;5141041;27;20034;-40
2022/04/28 05:13:43;;;;;;;5.75;1.77;;;20.20;33.90;;;;;;5158359;27;20015;-41
2022/04/28 05:16:09;;;;;;;6.57;2.00;;;20.30;33.80;;;;;;5140429;27;20491;-41
2022/04/28 05:18:35;;;;;;;4.78;2.00;;;20.40;33.70;;;;;;5141098;27;20023;-40
2022/04/28 05:21:00;;;;;;;4.35;1.73;;;20.50;33.60;;;;;;5122978;27;20043;-42
2022/04/28 05:23:28;;;;;;;4.80;1.65;;;20.60;33.50;;;;;;5159396;27;20461;-40
2022/04/28 05:25:54;;;;;;;4.00;1.90;;;20.70;33.50;;;;;;5159253;27;20046;-40
2022/04/28 05:28:20;;;;;;;5.95;2.03;;;20.80;33.40;;;;;;5159102;27;20011;-41
2022/04/28 05:30:46;;;;;;;3.30;1.63;;;20.80;33.30;;;;;;5141131;27;20018;-41
2022/04/28 05:33:12;;;;;;;4.03;1.70;;;20.80;33.30;;;;;;5159246;27;20011;-40
2022/04/28 05:35:39;;;;;;;4.45;1.85;;;20.90;33.20;;;;;;5158591;27;20037;-40
2022/04/28 05:38:05;;;;;;;4.32;1.75;;;21.00;33.00;;;;;;5141212;27;20014;-41
2022/04/28 05:40:31;;;;;;;3.25;1.63;;;21.10;32.90;;;;;;5160390;27;20022;-40
2022/04/28 05:45:46;;;;;;;3.05;1.60;;;21.30;32.60;;;;;;5128836;27;20087;-41
2022/04/28 05:48:15;;;;;;;4.32;1.63;;;21.40;32.50;;;;;;5159142;27;20422;-40
2022/04/28 05:50:41;;;;;;;3.47;1.60;;;21.60;32.40;;;;;;5140155;27;20022;-41
2022/04/28 05:53:08;;;;;;;4.82;1.63;;;21.80;32.10;;;;;;5158020;27;20500;-39
2022/04/28 05:55:34;;;;;;;4.35;1.70;;;22.00;31.80;;;;;;5157810;27;20472;-40
2022/04/28 05:58:03;;;;;;;5.30;2.05;;;22.20;31.40;;;;;;5121775;27;20023;-40
2022/04/28 06:00:29;;;;;;;3.05;1.55;;;22.40;31.10;;;;;;5138840;27;20011;-39
2022/04/28 06:02:56;;;;;;;5.38;1.85;;;22.60;30.80;;;;;;5156392;27;20052;-39
2022/04/28 06:05:22;;;;;;;3.25;1.30;;;22.80;30.50;;;;;;5155865;27;20035;-38
2022/04/28 06:07:49;;;;;;;3.35;1.40;;;23.00;30.20;;;;;;5155563;27;20086;-38
2022/04/28 06:10:14;;;;;;;3.25;1.50;;;23.20;30.00;;;;;;5156771;27;20007;-36
2022/04/28 06:12:41;;;;;;;5.07;2.33;;;23.40;29.90;;;;;;5119918;27;20403;-38
2022/04/28 06:15:08;;;;;;;3.10;1.30;;;23.60;29.70;;;;;;5137509;27;20043;-39
2022/04/28 06:17:34;;;;;;;4.05;1.70;;;23.70;29.50;;;;;;5153941;27;20140;-37
2022/04/28 06:20:02;;;;;;;3.20;1.40;;;23.80;29.30;;;;;;5114767;27;20035;-38
2022/04/28 06:22:29;;;;;;;4.00;1.75;;;24.00;29.10;;;;;;5131655;27;20110;-38
2022/04/28 06:24:55;;;;;;;5.72;1.70;;;24.10;29.00;;;;;;5133779;27;20037;-38
2022/04/28 06:27:21;;;;;;;3.60;1.50;;;24.10;29.00;;;;;;5134843;27;20027;-40
2022/04/28 06:29:48;;;;;;;10.93;2.60;;;24.20;29.00;;;;;;5134677;27;20050;-38
2022/04/28 06:32:17;;;;;;;11.13;2.33;;;24.20;29.40;;;;;;5134976;27;20039;-39
2022/04/28 06:34:44;;;;;;;10.57;2.63;;;24.40;29.60;;;;;;5133703;27;20035;-39
2022/04/28 06:37:10;;;;;;;9.18;2.45;;;24.60;29.60;;;;;;5133844;27;20106;-38
2022/04/28 06:39:35;;;;;;;14.18;3.00;;;24.80;29.50;;;;;;5135636;27;20015;-39
2022/04/28 06:42:01;;;;;;;9.52;2.35;;;24.90;29.40;;;;;;5135404;27;20359;-40
2022/04/28 06:44:27;;;;;;;12.50;2.42;;;25.00;29.30;;;;;;5133982;27;20027;-39
2022/04/28 06:46:53;;;;;;;9.48;2.42;;;25.20;29.60;;;;;;5135352;27;20027;-39
2022/04/28 06:49:19;;;;;;;8.57;2.10;;;25.30;29.10;;;;;;5135074;27;20019;-39
2022/04/28 06:51:47;;;;;;;10.43;2.10;;;25.30;29.00;;;;;;5134005;27;20007;-38
2022/04/28 06:54:13;;;;;;;9.13;2.45;;;25.40;28.90;;;;;;5133605;27;20011;-39
2022/04/28 06:56:39;;;;;;;8.95;2.00;;;25.50;28.90;;;;;;5134736;27;20442;-39
2022/04/28 06:59:05;;;;;;;10.52;2.60;;;25.60;28.80;;;;;;5135102;27;20053;-37
2022/04/28 07:01:31;;;;;;;10.07;2.17;;;25.60;28.80;;;;;;5135327;27;20011;-37
2022/04/28 07:04:01;;;;;;;11.25;2.03;;;25.60;28.80;;;;;;5133798;27;20118;-38
2022/04/28 07:06:26;;;;;;;10.10;2.03;;;25.70;28.80;;;;;;5135516;27;20080;-40
2022/04/28 07:08:52;;;;;;;6.90;2.20;;;25.80;28.80;;;;;;5135206;27;20587;-39
2022/04/28 07:11:20;;;;;;;7.80;2.15;;;25.80;28.80;;;;;;5135009;27;20027;-36
2022/04/28 07:13:46;;;;;;;5.97;2.03;;;25.90;28.80;;;;;;5135534;27;20132;-36
2022/04/28 07:16:11;;;;;;;10.30;1.88;;;25.90;28.70;;;;;;5117060;27;20027;-36
2022/04/28 07:18:37;;;;;;;13.52;3.63;;;25.40;28.90;;;;;;5137207;27;20477;-38
2022/04/28 07:21:03;;;;;;;19.88;4.22;;;23.50;30.00;;;;;;5136099;27;20041;-40
2022/04/28 07:23:29;;;;;;;21.58;3.03;;;23.00;31.30;;;;;;5135646;27;20068;-38
2022/04/28 07:25:55;;;;;;;20.67;3.10;;;22.50;31.90;;;;;;5136025;28;20122;-38
2022/04/28 07:28:20;;;;;;;14.85;3.03;;;22.90;31.40;;;;;;5120396;27;20102;-42
2022/04/28 07:30:46;;;;;;;18.05;3.45;;;23.40;30.50;;;;;;5141208;27;20011;-38
2022/04/28 07:33:12;;;;;;;11.45;2.60;;;23.70;29.90;;;;;;5141159;27;20040;-40
2022/04/28 07:35:37;;;;;;;9.43;2.30;;;23.70;29.50;;;;;;5141137;27;20015;-38
2022/04/28 07:38:03;;;;;;;14.05;2.80;;;23.70;29.50;;;;;;5140188;27;20015;-38
2022/04/28 07:40:30;;;;;;;16.08;2.47;;;23.80;29.40;;;;;;5141275;27;20019;-39
2022/04/28 07:42:56;;;;;;;11.88;2.67;;;23.90;29.00;;;;;;5141238;27;20012;-38
2022/04/28 07:45:22;;;;;;;15.07;2.40;;;24.00;28.80;;;;;;5141930;27;20544;-39
2022/04/28 07:47:49;;;;;;;7.40;2.17;;;24.10;28.70;;;;;;5141961;27;20068;-38
2022/04/28 07:50:15;;;;;;;17.00;3.15;;;24.10;28.60;;;;;;5141771;27;20034;-39
2022/04/28 07:52:41;;;;;;;14.90;3.42;;;23.70;28.80;;;;;;5141343;27;20007;-37
2022/04/28 07:55:08;;;;;;;15.98;3.53;;;22.40;30.00;;;;;;5140934;27;20018;-37
2022/04/28 07:57:34;;;;;;;12.20;3.83;;;21.80;31.20;;;;;;5140976;27;20064;-37
2022/04/28 07:59:59;;;;;;;12.13;3.97;;;20.90;32.30;;;;;;5142234;27;20011;-38
2022/04/28 08:02:26;;;;;;;22.25;4.22;;;20.60;33.10;;;;;;5140718;27;20327;-41
2022/04/28 08:04:53;;;;;;;20.98;4.47;;;20.70;33.00;;;;;;5140188;27;20072;-39
2022/04/28 08:07:20;;;;;;;21.25;4.93;;;20.70;33.20;;;;;;5140421;27;20068;-38
2022/04/28 08:09:49;;;;;;;18.58;3.85;;;20.90;33.00;;;;;;5139328;27;20026;-40
2022/04/28 08:12:16;;;;;;;24.83;4.35;;;21.10;33.40;;;;;;5139798;27;20487;-39
2022/04/28 08:14:41;;;;;;;17.17;3.45;;;20.90;34.30;;;;;;5138199;27;20018;-40
2022/04/28 08:17:07;;;;;;;25.83;3.60;;;21.20;33.70;;;;;;5137534;27;20095;-39
2022/04/28 08:19:33;;;;;;;19.90;3.97;;;21.50;33.60;;;;;;5137892;27;20019;-39
2022/04/28 08:21:59;;;;;;;19.55;4.00;;;21.70;33.00;;;;;;5142020;27;20035;-39
2022/04/28 08:24:24;;;;;;;13.85;3.50;;;21.50;33.50;;;;;;5142478;27;20101;-41
2022/04/28 08:26:51;;;;;;;10.55;2.83;;;21.50;33.60;;;;;;5161043;27;20026;-40
2022/04/28 08:29:17;;;;;;;15.90;4.43;;;21.90;33.00;;;;;;5143056;27;20026;-38
2022/04/28 08:31:46;;;;;;;11.57;4.20;;;21.30;33.50;;;;;;5125798;27;20373;-39
2022/04/28 08:34:13;;;;;;;13.27;4.00;;;21.00;33.90;;;;;;5143261;27;20010;-39
2022/04/28 08:36:39;;;;;;;12.15;3.70;;;20.80;34.00;;;;;;5161926;27;20053;-39
2022/04/28 08:39:05;;;;;;;11.57;4.55;;;20.80;33.90;;;;;;5160576;27;20429;-39
2022/04/28 08:41:35;;;;;;;10.15;3.30;;;21.00;33.10;;;;;;5157264;27;20011;-39
2022/04/28 08:44:03;;;;;;;9.50;2.95;;;21.00;33.00;;;;;;5158109;27;20488;-40
2022/04/28 08:49:13;;;;;;;9.98;2.83;;;21.10;32.00;;;;;;5157888;27;20514;-37
2022/04/28 08:51:39;;;;;;;10.85;2.42;;;20.90;32.90;;;;;;5157282;27;20038;-38
2022/04/28 08:54:13;;;;;;;8.52;3.03;;;21.50;32.30;;;;;;5138481;27;20010;-39
2022/04/28 08:56:39;;;;;;;5.95;2.50;;;21.40;31.40;;;;;;5157016;27;20100;-38
2022/04/28 08:59:08;;;;;;;9.75;3.15;;;21.30;32.10;;;;;;5156924;27;20015;-39
2022/04/28 09:01:34;;;;;;;12.57;3.20;;;21.80;31.00;;;;;;5139167;27;20022;-38
2022/04/28 09:04:02;;;;;;;8.90;3.45;;;21.50;31.80;;;;;;5156573;27;20007;-39
2022/04/28 09:06:34;;;;;;;11.02;3.28;;;21.10;32.30;;;;;;5156948;27;20034;-39
2022/04/28 09:09:04;;;;;;;12.70;3.33;;;21.20;32.30;;;;;;5158565;27;20140;-39
2022/04/28 09:11:32;;;;;;;19.60;4.03;;;21.50;31.60;;;;;;5156862;27;20007;-39
2022/04/28 09:14:12;;;;;;;24.42;3.80;;;21.50;32.30;;;;;;5157332;27;20440;-40
2022/04/28 09:16:40;;;;;;;18.77;4.10;;;21.00;33.50;;;;;;5156922;27;20030;-39
2022/04/28 09:19:06;;;;;;;17.40;3.88;;;21.20;33.00;;;;;;5156646;27;20003;-40
2022/04/28 09:21:34;;;;;;;15.40;3.08;;;21.20;32.80;;;;;;5138688;27;20039;-40
2022/04/28 09:24:00;;;;;;;15.55;4.18;;;21.30;33.20;;;;;;5157004;27;20477;-39
2022/04/28 09:26:25;;;;;;;12.88;3.80;;;20.90;33.80;;;;;;5157683;27;20076;-40
2022/04/28 09:28:53;;;;;;;17.27;4.13;;;20.70;34.10;;;;;;5157238;27;20027;-40
2022/04/28 09:31:19;;;;;;;11.02;3.92;;;21.00;33.60;;;;;;5157449;27;20031;-40
2022/04/28 09:33:46;;;;;;;17.05;3.45;;;21.60;32.90;;;;;;5157474;27;20022;-39
2022/04/28 09:36:15;;;;;;;14.20;3.95;;;21.50;32.70;;;;;;5140131;27;20021;-42
2022/04/28 09:38:40;;;;;;;15.13;3.50;;;21.40;32.50;;;;;;5158880;27;20069;-39
2022/04/28 09:43:57;;;;;;;14.50;3.97;;;21.10;33.20;;;;;;5142584;27;20527;-42
2022/04/28 09:46:23;;;;;;;10.77;4.30;;;21.50;32.20;;;;;;5158186;27;20159;-39
2022/04/28 09:48:50;;;;;;;11.18;3.97;;;21.60;31.50;;;;;;5138855;27;20457;-40
2022/04/28 09:51:21;;;;;;;7.68;3.35;;;21.70;31.30;;;;;;5138387;27;20038;-39
2022/04/28 09:53:48;;;;;;;6.82;3.03;;;21.80;31.30;;;;;;5138942;27;20011;-39
2022/04/28 09:56:15;;;;;;;8.40;2.88;;;22.10;31.20;;;;;;5157801;27;20018;-44
2022/04/28 09:58:40;;;;;;;14.00;2.92;;;22.10;31.20;;;;;;5140191;27;20030;-40
2022/04/28 10:01:06;;;;;;;10.82;3.25;;;22.10;31.20;;;;;;5139960;27;20010;-40
2022/04/28 10:03:37;;;;;;;8.95;2.58;;;22.60;30.60;;;;;;5139027;27;20053;-40
2022/04/28 10:06:02;;;;;;;;;;;23.20;29.80;;;;;;5157977;27;20548;-37
2022/04/28 10:08:34;;;;;;;10.15;2.40;;;23.70;29.30;;;;;;5156408;27;19903;-37
2022/04/28 10:11:01;;;;;;;6.32;2.13;;;24.10;28.80;;;;;;5159233;27;20026;-39
2022/04/28 10:13:30;;;;;;;7.97;1.75;;;24.40;28.40;;;;;;5142280;27;20006;-38
2022/04/28 10:16:05;;;;;;;6.10;1.70;;;24.60;28.10;;;;;;5158277;27;20403;-41
2022/04/28 10:18:37;;;;;;;7.30;1.90;;;24.80;27.90;;;;;;5140964;27;20452;-38
2022/04/28 10:21:05;;;;;;;6.97;1.80;;;24.90;27.80;;;;;;5135118;27;20145;-41
2022/04/28 10:34:32;;;;;;;7.55;1.77;;;25.30;27.60;;;;;;5137667;27;20027;-44
2022/04/28 10:37:07;;;;;;;5.32;1.80;;;25.30;27.50;;;;;;5140380;27;20023;-42
2022/04/28 10:39:38;;;;;;;7.50;1.80;;;25.30;27.50;;;;;;5120670;27;20016;-40
2022/04/28 10:42:40;;;;;;;7.03;1.60;;;25.30;27.50;;;;;;5136885;27;20505;-41
2022/04/28 10:45:19;;;;;;;6.63;1.65;;;25.40;27.50;;;;;;5137453;27;20045;-39
2022/04/28 10:47:45;;;;;;;6.30;1.70;;;25.40;27.90;;;;;;5135092;27;20031;-39
2022/04/28 10:50:27;;;;;;;7.72;2.30;;;25.40;27.50;;;;;;5132910;27;20423;-40
2022/04/28 10:52:56;;;;;;;4.90;1.65;;;25.40;27.50;;;;;;5133088;27;20019;-38
2022/04/28 10:55:24;;;;;;;5.40;2.03;;;25.40;27.40;;;;;;5134865;27;20469;-39
2022/04/28 10:57:50;;;;;;;5.60;1.60;;;25.40;27.40;;;;;;5134532;27;20038;-39
2022/04/28 11:00:37;;;;;;;5.93;1.70;;;25.40;27.50;;;;;;5134560;27;20094;-39
2022/04/28 11:03:03;;;;;;;6.90;2.05;;;25.50;27.50;;;;;;5115373;27;20101;-38
2022/04/28 11:05:31;;;;;;;8.20;1.80;;;25.40;27.50;;;;;;5132537;27;20008;-38
2022/04/28 11:07:59;;;;;;;6.30;1.92;;;25.40;27.60;;;;;;5134402;27;20481;-39
2022/04/28 11:10:25;;;;;;;7.40;1.90;;;25.40;27.70;;;;;;5115916;27;20011;-40
2022/04/28 11:12:51;;;;;;;7.90;2.10;;;25.40;27.70;;;;;;5134288;27;20426;-39
2022/04/28 11:15:18;;;;;;;6.47;2.00;;;25.30;27.80;;;;;;5115405;27;20064;-38
2022/04/28 11:17:44;;;;;;;7.65;1.98;;;25.30;27.80;;;;;;5133021;27;20481;-38
2022/04/28 11:20:15;;;;;;;6.88;2.13;;;25.30;27.90;;;;;;5132300;27;20031;-38
2022/04/28 11:22:46;;;;;;;6.60;2.78;;;25.20;27.90;;;;;;5132703;27;20015;-38
2022/04/28 11:25:13;;;;;;;7.80;2.00;;;25.20;28.00;;;;;;5133564;27;20095;-39
2022/04/28 11:27:39;;;;;;;8.27;2.22;;;25.20;28.10;;;;;;5133611;28;20032;-40
2022/04/28 11:30:05;;;;;;;5.70;1.90;;;25.10;28.10;;;;;;5132200;28;20322;-39
2022/04/28 11:32:31;;;;;;;6.70;1.80;;;25.10;28.20;;;;;;5133605;27;20011;-40
2022/04/28 11:34:58;;;;;;;6.22;2.17;;;25.10;28.30;;;;;;5133705;27;20571;-39
2022/04/28 11:37:25;;;;;;;6.55;2.10;;;24.90;28.40;;;;;;5133432;28;20027;-38
2022/04/28 11:39:53;;;;;;;7.13;1.73;;;24.90;28.50;;;;;;5132987;28;20023;-39
2022/04/28 11:42:20;;;;;;;3.95;1.67;;;24.80;28.50;;;;;;5134997;28;20484;-41
2022/04/28 11:44:47;;;;;;;4.90;1.75;;;24.80;28.60;;;;;;5117282;28;20039;-38
2022/04/28 11:47:12;;;;;;;7.00;1.92;;;24.80;28.70;;;;;;5133042;28;20015;-39
2022/04/28 11:49:41;;;;;;;6.57;2.30;;;24.80;28.70;;;;;;5134377;28;20059;-39
2022/04/28 11:52:23;;;;;;;5.57;2.00;;;24.80;28.80;;;;;;5132895;28;20022;-39
2022/04/28 11:54:57;;;;;;;4.00;1.80;;;24.80;28.90;;;;;;5134431;28;20550;-39
2022/04/28 11:57:22;;;;;;;6.97;2.10;;;24.70;28.90;;;;;;5134344;28;20023;-39
2022/04/28 11:59:49;;;;;;;7.93;2.00;;;24.70;28.90;;;;;;5135094;28;20042;-40
2022/04/28 12:02:24;;;;;;;9.82;2.45;;;24.70;29.00;;;;;;5134250;28;20022;-41
2022/04/28 12:04:52;;;;;;;6.40;2.00;;;24.70;29.00;;;;;;5135477;28;20489;-41
2022/04/28 12:07:20;;;;;;;5.55;1.85;;;24.70;29.00;;;;;;5135129;28;20107;-39
2022/04/28 12:15:15;;;;;;;5.65;1.90;;;24.60;29.10;;;;;;5135906;27;20026;-40
2022/04/28 12:20:55;;;;;;;7.13;2.22;;;24.60;29.20;;;;;;5138104;27;20062;-39
2022/04/28 12:23:30;;;;;;;6.15;2.50;;;24.50;29.30;;;;;;5138707;27;20457;-39
2022/04/28 12:26:00;;;;;;;7.13;1.90;;;24.50;29.40;;;;;;5138337;27;20031;-38
2022/04/28 12:28:32;;;;;;;;;;;24.40;29.40;;;;;;5137995;27;20025;-37
2022/04/28 12:30:58;;;;;;;5.68;1.77;;;24.40;29.50;;;;;;5137744;27;20086;-39
2022/04/28 12:33:26;;;;;;;4.00;1.98;;;24.40;29.60;;;;;;5135707;27;20521;-38
2022/04/28 12:35:52;;;;;;;5.20;1.98;;;24.30;29.70;;;;;;5137605;27;20118;-38
2022/04/28 12:38:23;;;;;;;6.30;2.10;;;24.30;29.80;;;;;;5137917;27;20033;-38
2022/04/28 12:40:49;;;;;;;5.60;2.35;;;24.30;29.90;;;;;;5137948;27;20023;-38
2022/04/28 12:43:42;;;;;;;5.95;1.90;;;24.20;29.90;;;;;;5136660;27;20064;-39
2022/04/28 12:46:08;;;;;;;5.38;2.00;;;24.20;30.00;;;;;;5137319;27;20031;-38
2022/04/28 12:48:35;;;;;;;7.72;2.30;;;24.20;30.00;;;;;;5136174;27;20480;-39
2022/04/28 12:51:08;;;;;;;7.90;2.13;;;24.10;30.10;;;;;;5119067;27;20110;-38
2022/04/28 12:53:34;;;;;;;7.00;2.20;;;24.10;30.20;;;;;;5135510;27;20015;-38
2022/04/28 12:56:12;;;;;;;7.35;2.22;;;24.10;30.30;;;;;;5118344;27;20096;-39
2022/04/28 12:58:48;;;;;;;6.50;1.85;;;24.10;30.40;;;;;;5136817;27;20042;-40
2022/04/28 13:01:18;;;;;;;5.97;1.92;;;24.10;30.50;;;;;;5135294;27;20045;-38
2022/04/28 13:04:06;;;;;;;5.22;2.00;;;24.10;30.50;;;;;;5118310;27;20015;-36
2022/04/28 13:06:34;;;;;;;6.55;2.15;;;24.10;30.50;;;;;;5134705;27;20027;-36
2022/04/28 13:09:01;;;;;;;7.20;2.65;;;24.10;30.50;;;;;;5135356;27;20008;-37
2022/04/28 13:11:28;;;;;;;7.10;2.42;;;24.10;30.50;;;;;;5136894;27;20020;-38
2022/04/28 13:13:57;;;;;;;7.78;2.65;;;24.10;30.50;;;;;;5136719;27;20011;-37
2022/04/28 13:16:25;;;;;;;5.32;2.05;;;24.10;30.50;;;;;;5118340;27;20019;-38
2022/04/28 13:18:51;;;;;;;8.23;2.60;;;24.10;30.50;;;;;;5118337;27;20132;-39
2022/04/28 13:21:17;;;;;;;7.90;2.50;;;24.10;30.40;;;;;;5152756;27;20516;-37
2022/04/28 13:23:43;;;;;;;5.53;2.15;;;24.10;30.40;;;;;;5140125;27;20396;-37
2022/04/28 13:26:09;;;;;;;5.03;1.98;;;24.20;30.40;;;;;;5124545;27;20079;-37